Time;durP1;ratioP1;P1;durP2;ratioP2;P2;SDS_P1;SDS_P2;PMS_P1;PMS_P2;Temp;Humidity;BMP_temperature;BMP_pressure;BME280_temperature;BME280_humidity;BME280_pressure;Samples;Min_cycle;Max_cycle;Signal;HPM_P1;HPM_P2
2023/05/17 00:00:08;;;;;;;15.30;4.07;;;;;;;;;;5028252;28;20212;-69
2023/05/17 00:02:34;;;;;;;16.80;4.13;;;;;;;;;;5029181;28;20190;-69
2023/05/17 00:04:59;;;;;;;19.50;4.63;;;;;;;;;;5028592;28;20236;-68
2023/05/17 00:07:24;;;;;;;18.95;4.63;;;;;;;;;;5041086;28;20198;-68
2023/05/17 00:09:50;;;;;;;19.52;4.47;;;;;;;;;;5017421;28;20207;-68
2023/05/17 00:12:15;;;;;;;19.80;5.00;;;;;;;;;;5019080;28;20263;-68
2023/05/17 00:14:41;;;;;;;20.60;4.63;;;;;;;;;;5044967;28;20481;-69
2023/05/17 00:17:06;;;;;;;12.02;4.55;;;;;;;;;;5043215;28;20181;-68
2023/05/17 00:19:31;;;;;;;23.20;5.80;;;;;;;;;;5036361;28;20194;-68
2023/05/17 00:21:57;;;;;;;18.73;4.80;;;;;;;;;;5028354;28;20664;-68
2023/05/17 00:24:22;;;;;;;20.58;4.95;;;;;;;;;;5037625;28;20255;-68
2023/05/17 00:26:47;;;;;;;13.80;4.65;;;;;;;;;;5044593;28;20566;-68
2023/05/17 00:29:13;;;;;;;16.30;5.10;;;;;;;;;;5043619;28;20677;-70
2023/05/17 00:31:38;;;;;;;17.23;5.32;;;;;;;;;;5020544;28;20203;-68
2023/05/17 00:34:03;;;;;;;17.45;4.57;;;;;;;;;;5024375;28;20190;-68
2023/05/17 00:36:29;;;;;;;13.57;4.35;;;;;;;;;;5020294;28;20190;-69
2023/05/17 00:38:55;;;;;;;19.80;4.85;;;;;;;;;;5017618;28;20226;-69
2023/05/17 00:41:20;;;;;;;21.38;5.20;;;;;;;;;;5020852;28;20212;-68
2023/05/17 00:43:45;;;;;;;17.13;4.55;;;;;;;;;;5017789;28;20198;-68
2023/05/17 00:46:11;;;;;;;19.85;4.95;;;;;;;;;;5024426;28;20226;-69
2023/05/17 00:48:36;;;;;;;18.08;4.20;;;;;;;;;;5028178;28;20641;-69
2023/05/17 00:51:02;;;;;;;16.23;3.97;;;;;;;;;;5026156;28;20249;-68
2023/05/17 00:53:28;;;;;;;17.38;4.60;;;;;;;;;;5013785;28;20186;-69
2023/05/17 00:55:54;;;;;;;14.60;4.35;;;;;;;;;;5032652;28;20193;-68
2023/05/17 00:58:20;;;;;;;15.35;5.07;;;;;;;;;;5026410;28;20603;-68
2023/05/17 01:00:46;;;;;;;19.30;4.47;;;;;;;;;;5038578;28;20194;-68
2023/05/17 01:03:11;;;;;;;19.42;5.28;;;;;;;;;;5027508;28;20225;-68
2023/05/17 01:05:37;;;;;;;16.75;5.00;;;;;;;;;;5022557;28;20219;-68
2023/05/17 01:08:02;;;;;;;15.20;4.80;;;;;;;;;;5028444;28;20269;-68
2023/05/17 01:10:51;;;;;;;25.52;4.90;;;;;;;;;;5030390;28;20264;-68
2023/05/17 01:13:41;;;;;;;19.75;5.03;;;;;;;;;;5020562;28;20198;-69
2023/05/17 01:16:16;;;;;;;18.75;4.45;;;;;;;;;;5021992;28;20566;-69
2023/05/17 01:18:51;;;;;;;19.85;5.00;;;;;;;;;;5029050;28;20185;-68
2023/05/17 01:21:54;;;;;;;22.02;5.18;;;;;;;;;;5029037;28;20185;-69
2023/05/17 01:24:32;;;;;;;25.30;5.35;;;;;;;;;;5025553;28;20205;-68
2023/05/17 01:26:59;;;;;;;16.52;5.03;;;;;;;;;;5028373;28;20598;-68
2023/05/17 01:29:27;;;;;;;22.90;4.97;;;;;;;;;;5021690;28;20191;-68
2023/05/17 01:31:54;;;;;;;16.65;5.35;;;;;;;;;;5025730;28;20201;-69
2023/05/17 01:34:27;;;;;;;21.05;5.05;;;;;;;;;;5017475;28;20205;-69
2023/05/17 01:36:53;;;;;;;17.75;5.40;;;;;;;;;;5017892;28;20661;-69
2023/05/17 01:39:19;;;;;;;22.50;4.95;;;;;;;;;;5023779;28;20218;-69
2023/05/17 01:42:07;;;;;;;23.02;6.10;;;;;;;;;;5020014;28;20210;-68
2023/05/17 01:44:42;;;;;;;24.50;5.78;;;;;;;;;;5025359;28;20213;-69
2023/05/17 01:47:26;;;;;;;19.92;4.95;;;;;;;;;;5018550;28;20198;-68
2023/05/17 01:49:53;;;;;;;24.42;5.13;;;;;;;;;;5024510;28;20234;-69
2023/05/17 01:52:28;;;;;;;19.60;5.70;;;;;;;;;;5029404;28;20190;-68
2023/05/17 01:55:03;;;;;;;20.98;5.55;;;;;;;;;;5036465;28;20282;-70
2023/05/17 01:57:34;;;;;;;22.42;5.13;;;;;;;;;;5063848;28;20609;-69
2023/05/17 02:00:03;;;;;;;19.17;5.57;;;;;;;;;;5036014;28;20270;-70
2023/05/17 02:02:29;;;;;;;19.05;5.22;;;;;;;;;;5027913;28;20182;-69
2023/05/17 02:04:54;;;;;;;17.42;4.43;;;;;;;;;;5021787;28;20194;-69
2023/05/17 02:07:20;;;;;;;22.23;5.13;;;;;;;;;;5030769;28;20200;-69
2023/05/17 02:09:45;;;;;;;22.52;4.95;;;;;;;;;;5030115;28;20202;-69
2023/05/17 02:12:10;;;;;;;19.77;4.93;;;;;;;;;;5030826;28;20559;-69
2023/05/17 02:14:36;;;;;;;22.23;5.38;;;;;;;;;;5026498;28;20348;-70
2023/05/17 02:17:04;;;;;;;23.38;4.85;;;;;;;;;;5026998;28;20601;-70
2023/05/17 02:19:30;;;;;;;24.00;4.78;;;;;;;;;;5032301;28;20191;-70
2023/05/17 02:21:55;;;;;;;19.70;5.15;;;;;;;;;;5029196;28;20191;-69
2023/05/17 02:24:20;;;;;;;29.58;5.57;;;;;;;;;;5019588;28;20669;-70
2023/05/17 02:26:46;;;;;;;21.17;5.38;;;;;;;;;;5036865;28;20298;-69
2023/05/17 02:29:11;;;;;;;18.77;5.70;;;;;;;;;;5027821;28;20202;-69
2023/05/17 02:31:36;;;;;;;33.20;5.45;;;;;;;;;;5032928;28;20416;-69
2023/05/17 02:34:02;;;;;;;19.13;6.03;;;;;;;;;;5032644;28;20192;-69
2023/05/17 02:36:27;;;;;;;23.00;5.63;;;;;;;;;;5042494;28;20262;-69
2023/05/17 02:38:53;;;;;;;22.38;5.25;;;;;;;;;;5026865;28;20253;-70
2023/05/17 02:41:18;;;;;;;30.95;4.70;;;;;;;;;;5039463;28;20189;-70
2023/05/17 02:43:43;;;;;;;19.65;5.35;;;;;;;;;;5028072;28;20195;-70
2023/05/17 02:46:09;;;;;;;24.27;5.15;;;;;;;;;;5030720;28;20608;-70
2023/05/17 02:48:34;;;;;;;24.90;4.85;;;;;;;;;;5029397;28;20608;-70
2023/05/17 02:51:00;;;;;;;21.27;5.60;;;;;;;;;;5029369;28;20209;-69
2023/05/17 02:53:25;;;;;;;15.45;4.78;;;;;;;;;;5025198;28;20622;-69
2023/05/17 02:55:51;;;;;;;27.77;4.53;;;;;;;;;;5032296;28;20284;-70
2023/05/17 02:58:17;;;;;;;24.02;4.93;;;;;;;;;;5041753;28;20236;-70
2023/05/17 03:00:45;;;;;;;22.98;4.90;;;;;;;;;;5036995;28;20201;-69
2023/05/17 03:03:11;;;;;;;20.63;4.70;;;;;;;;;;5044020;28;20194;-70
2023/05/17 03:05:36;;;;;;;20.67;4.88;;;;;;;;;;5029711;28;20194;-69
2023/05/17 03:08:01;;;;;;;24.73;5.68;;;;;;;;;;5019119;28;20214;-70
2023/05/17 03:10:27;;;;;;;26.27;5.15;;;;;;;;;;5028687;28;20213;-70
2023/05/17 03:12:52;;;;;;;32.03;6.75;;;;;;;;;;5024373;28;20229;-68
2023/05/17 03:15:18;;;;;;;25.30;5.63;;;;;;;;;;5020742;28;20202;-69
2023/05/17 03:17:43;;;;;;;22.55;5.25;;;;;;;;;;5021766;28;20190;-69
2023/05/17 03:20:09;;;;;;;22.88;4.97;;;;;;;;;;5030409;28;20581;-70
2023/05/17 03:22:34;;;;;;;36.80;5.82;;;;;;;;;;5038542;28;20270;-70
2023/05/17 03:24:59;;;;;;;29.95;5.85;;;;;;;;;;5029886;28;20182;-69
2023/05/17 03:27:25;;;;;;;29.35;5.18;;;;;;;;;;5036933;28;20189;-69
2023/05/17 03:29:50;;;;;;;24.20;6.45;;;;;;;;;;5034741;28;20209;-70
2023/05/17 03:32:16;;;;;;;25.95;5.60;;;;;;;;;;5029037;28;20194;-70
2023/05/17 03:34:41;;;;;;;22.23;4.72;;;;;;;;;;5030781;28;20408;-70
2023/05/17 03:37:07;;;;;;;29.52;5.60;;;;;;;;;;5040804;28;20514;-70
2023/05/17 03:39:32;;;;;;;23.00;5.88;;;;;;;;;;5033113;28;20197;-69
2023/05/17 03:41:58;;;;;;;26.83;4.75;;;;;;;;;;5028187;28;20688;-70
2023/05/17 03:44:23;;;;;;;26.17;5.53;;;;;;;;;;5030051;28;20197;-70
2023/05/17 03:46:49;;;;;;;24.85;4.85;;;;;;;;;;5041655;28;20189;-70
2023/05/17 03:49:14;;;;;;;27.45;4.57;;;;;;;;;;5029812;28;20217;-69
2023/05/17 03:51:40;;;;;;;27.67;4.03;;;;;;;;;;5038714;28;20200;-69
2023/05/17 03:54:05;;;;;;;28.58;5.25;;;;;;;;;;5026983;28;20190;-69
2023/05/17 03:56:31;;;;;;;25.30;4.30;;;;;;;;;;5040632;28;20225;-69
2023/05/17 03:58:56;;;;;;;25.27;4.88;;;;;;;;;;5029478;28;20186;-69
2023/05/17 04:01:22;;;;;;;26.50;4.68;;;;;;;;;;5036268;28;20568;-69
2023/05/17 04:03:47;;;;;;;26.52;4.18;;;;;;;;;;5038213;28;20225;-69
2023/05/17 04:06:13;;;;;;;21.90;4.50;;;;;;;;;;5028486;28;20182;-70
2023/05/17 04:08:39;;;;;;;25.05;5.80;;;;;;;;;;5027733;28;20190;-69
2023/05/17 04:11:12;;;;;;;22.38;4.72;;;;;;;;;;5028397;28;20201;-69
2023/05/17 04:13:39;;;;;;;20.02;4.00;;;;;;;;;;5028354;28;20331;-70
2023/05/17 04:16:06;;;;;;;25.02;4.43;;;;;;;;;;5028385;28;20635;-70
2023/05/17 04:18:37;;;;;;;21.38;3.35;;;;;;;;;;5043101;28;20186;-68
2023/05/17 04:21:03;;;;;;;24.98;4.22;;;;;;;;;;5030808;28;20559;-68
2023/05/17 04:23:29;;;;;;;23.30;4.10;;;;;;;;;;5030354;28;20190;-70
2023/05/17 04:25:56;;;;;;;23.77;3.13;;;;;;;;;;5022627;28;20191;-73
2023/05/17 04:28:22;;;;;;;26.38;4.03;;;;;;;;;;5017072;28;20636;-70
2023/05/17 04:30:47;;;;;;;23.98;5.22;;;;;;;;;;5029124;28;20205;-70
2023/05/17 04:33:13;;;;;;;25.30;4.40;;;;;;;;;;5027720;28;20584;-70
2023/05/17 04:35:40;;;;;;;20.00;3.70;;;;;;;;;;5032436;28;20209;-70
2023/05/17 04:38:06;;;;;;;29.45;4.90;;;;;;;;;;5024343;28;20258;-70
2023/05/17 04:40:32;;;;;;;27.55;3.55;;;;;;;;;;5037184;28;20638;-70
2023/05/17 04:42:57;;;;;;;20.27;3.63;;;;;;;;;;5038896;28;20696;-70
2023/05/17 04:45:22;;;;;;;19.20;3.42;;;;;;;;;;5032414;28;20182;-70
2023/05/17 04:47:49;;;;;;;22.00;3.78;;;;;;;;;;5041934;28;20220;-69
2023/05/17 04:50:15;;;;;;;21.85;3.67;;;;;;;;;;5026243;28;20540;-73
2023/05/17 04:52:41;;;;;;;19.27;3.30;;;;;;;;;;5026475;28;20577;-70
2023/05/17 04:55:06;;;;;;;16.88;4.13;;;;;;;;;;5026573;28;20268;-70
2023/05/17 04:57:32;;;;;;;19.42;3.35;;;;;;;;;;5010897;28;20256;-70
2023/05/17 04:59:57;;;;;;;17.95;3.28;;;;;;;;;;5030395;28;20182;-69
2023/05/17 05:02:22;;;;;;;23.02;3.55;;;;;;;;;;5027557;28;20192;-70
2023/05/17 05:04:48;;;;;;;16.98;3.50;;;;;;;;;;5025346;28;20194;-69
2023/05/17 05:07:13;;;;;;;21.45;3.28;;;;;;;;;;5025979;28;20186;-71
2023/05/17 05:09:38;;;;;;;17.27;3.10;;;;;;;;;;5037416;28;20276;-70
2023/05/17 05:12:04;;;;;;;18.67;3.03;;;;;;;;;;5027323;28;20209;-69
2023/05/17 05:14:30;;;;;;;23.58;3.38;;;;;;;;;;5018475;28;20179;-71
2023/05/17 05:16:55;;;;;;;19.58;3.17;;;;;;;;;;5012117;28;20807;-71
2023/05/17 05:19:20;;;;;;;18.27;3.28;;;;;;;;;;5018004;28;20197;-69
2023/05/17 05:21:46;;;;;;;22.33;3.47;;;;;;;;;;5017820;28;20212;-72
2023/05/17 05:24:11;;;;;;;17.10;2.88;;;;;;;;;;5022560;28;20233;-70
2023/05/17 05:26:36;;;;;;;18.67;3.20;;;;;;;;;;5012739;28;20198;-71
2023/05/17 05:29:02;;;;;;;21.20;3.10;;;;;;;;;;5023316;28;20699;-70
2023/05/17 05:31:28;;;;;;;24.02;4.07;;;;;;;;;;5019892;28;20202;-70
2023/05/17 05:33:53;;;;;;;23.92;3.00;;;;;;;;;;5036295;28;20233;-70
2023/05/17 05:36:19;;;;;;;14.07;3.00;;;;;;;;;;5018861;28;20194;-70
2023/05/17 05:38:44;;;;;;;21.52;3.00;;;;;;;;;;5014008;28;20288;-71
2023/05/17 05:41:09;;;;;;;21.80;4.38;;;;;;;;;;5016370;28;20209;-69
2023/05/17 05:43:36;;;;;;;18.38;2.70;;;;;;;;;;5012773;28;20190;-71
2023/05/17 05:46:01;;;;;;;21.27;2.60;;;;;;;;;;5029704;28;20247;-69
2023/05/17 05:48:27;;;;;;;21.67;2.67;;;;;;;;;;5024521;28;20276;-69
2023/05/17 05:50:52;;;;;;;14.40;2.47;;;;;;;;;;5022033;28;20225;-70
2023/05/17 05:53:17;;;;;;;19.52;2.58;;;;;;;;;;5025930;28;20669;-71
2023/05/17 05:55:43;;;;;;;19.73;2.78;;;;;;;;;;5040693;28;20208;-71
2023/05/17 05:58:08;;;;;;;15.55;2.92;;;;;;;;;;5027173;28;20192;-72
2023/05/17 06:00:35;;;;;;;13.82;2.50;;;;;;;;;;5019304;28;20211;-70
2023/05/17 06:03:00;;;;;;;14.10;2.45;;;;;;;;;;5033604;28;20481;-71
2023/05/17 06:05:26;;;;;;;12.85;2.50;;;;;;;;;;5028383;28;20276;-71
2023/05/17 06:07:51;;;;;;;15.27;2.00;;;;;;;;;;5023351;28;20220;-71
2023/05/17 06:10:16;;;;;;;11.00;2.10;;;;;;;;;;5023352;28;20241;-71
2023/05/17 06:12:42;;;;;;;18.33;2.00;;;;;;;;;;5031117;28;20274;-72
2023/05/17 06:15:08;;;;;;;12.20;1.92;;;;;;;;;;5044182;28;20569;-71
2023/05/17 06:17:33;;;;;;;13.18;2.20;;;;;;;;;;5039997;28;20255;-72
2023/05/17 06:19:59;;;;;;;10.95;1.70;;;;;;;;;;5027679;28;20256;-73
2023/05/17 06:22:24;;;;;;;14.88;2.33;;;;;;;;;;5026348;28;20474;-71
2023/05/17 06:24:49;;;;;;;11.07;2.35;;;;;;;;;;5027800;28;20535;-72
2023/05/17 06:27:15;;;;;;;9.27;1.73;;;;;;;;;;5036726;28;20206;-71
2023/05/17 06:29:40;;;;;;;13.13;1.92;;;;;;;;;;5030765;28;20252;-72
2023/05/17 06:32:06;;;;;;;18.20;2.17;;;;;;;;;;5040520;28;20201;-71
2023/05/17 06:34:31;;;;;;;15.00;2.15;;;;;;;;;;5027594;28;20225;-71
2023/05/17 06:36:57;;;;;;;10.15;1.85;;;;;;;;;;5032773;28;20598;-70
2023/05/17 06:39:22;;;;;;;15.93;1.80;;;;;;;;;;5038035;28;20325;-69
2023/05/17 06:41:48;;;;;;;6.97;1.60;;;;;;;;;;5035623;28;20198;-71
2023/05/17 06:44:13;;;;;;;15.38;1.73;;;;;;;;;;5033794;28;20333;-72
2023/05/17 06:46:39;;;;;;;14.55;1.73;;;;;;;;;;5022034;28;20810;-72
2023/05/17 06:49:04;;;;;;;6.75;1.52;;;;;;;;;;5023337;28;20182;-71
2023/05/17 06:51:30;;;;;;;13.82;1.88;;;;;;;;;;5017560;28;20674;-70
2023/05/17 06:53:55;;;;;;;14.40;1.65;;;;;;;;;;5022388;28;20650;-71
2023/05/17 06:56:21;;;;;;;9.40;1.50;;;;;;;;;;5024449;28;20236;-70
2023/05/17 06:58:46;;;;;;;7.45;1.55;;;;;;;;;;5038277;28;20190;-71
2023/05/17 07:01:12;;;;;;;9.18;1.67;;;;;;;;;;5024974;28;20263;-71
2023/05/17 07:03:37;;;;;;;8.45;1.40;;;;;;;;;;5029602;28;20645;-71
2023/05/17 07:06:03;;;;;;;11.02;1.25;;;;;;;;;;5019050;28;20240;-72
2023/05/17 07:08:29;;;;;;;12.05;1.50;;;;;;;;;;5025279;28;20183;-70
2023/05/17 07:10:54;;;;;;;13.57;2.00;;;;;;;;;;5022807;28;20209;-71
2023/05/17 07:13:19;;;;;;;8.43;1.30;;;;;;;;;;5027551;28;20308;-72
2023/05/17 07:15:45;;;;;;;11.98;1.30;;;;;;;;;;5011040;28;20570;-70
2023/05/17 07:18:10;;;;;;;12.45;1.98;;;;;;;;;;5022691;28;20175;-71
2023/05/17 07:20:36;;;;;;;12.70;1.08;;;;;;;;;;5030838;28;20281;-71
2023/05/17 07:23:01;;;;;;;10.65;1.73;;;;;;;;;;5026553;28;20301;-72
2023/05/17 07:25:26;;;;;;;9.15;1.30;;;;;;;;;;5043194;28;20198;-70
2023/05/17 07:27:52;;;;;;;14.00;1.52;;;;;;;;;;5040309;28;20258;-70
2023/05/17 07:30:17;;;;;;;8.32;1.10;;;;;;;;;;5030636;28;20225;-71
2023/05/17 07:32:43;;;;;;;8.68;1.42;;;;;;;;;;5046780;28;20217;-70
2023/05/17 07:35:08;;;;;;;6.03;1.20;;;;;;;;;;5029780;28;20190;-71
2023/05/17 07:37:33;;;;;;;8.45;1.30;;;;;;;;;;5025587;28;20297;-68
2023/05/17 07:39:59;;;;;;;9.52;1.40;;;;;;;;;;5022984;28;20232;-71
2023/05/17 07:42:24;;;;;;;7.45;1.30;;;;;;;;;;5027335;28;20559;-72
2023/05/17 07:44:50;;;;;;;12.23;1.63;;;;;;;;;;5034606;28;20190;-72
2023/05/17 07:47:15;;;;;;;13.25;1.52;;;;;;;;;;5029347;28;20594;-72
2023/05/17 07:49:40;;;;;;;10.80;1.27;;;;;;;;;;5032452;28;20198;-71
2023/05/17 07:52:06;;;;;;;9.52;1.63;;;;;;;;;;5026621;28;20206;-72
2023/05/17 07:54:31;;;;;;;7.35;1.10;;;;;;;;;;5020092;28;20610;-70
2023/05/17 07:56:58;;;;;;;9.75;1.25;;;;;;;;;;5040995;28;20753;-72
2023/05/17 07:59:24;;;;;;;8.68;1.27;;;;;;;;;;5036889;28;20244;-71
2023/05/17 08:01:49;;;;;;;11.88;1.83;;;;;;;;;;5025291;28;20214;-72
2023/05/17 08:04:15;;;;;;;6.43;1.27;;;;;;;;;;5024551;28;20645;-73
2023/05/17 08:06:42;;;;;;;12.80;1.48;;;;;;;;;;5031855;28;20496;-71
2023/05/17 08:09:07;;;;;;;4.07;0.90;;;;;;;;;;5036087;28;20234;-71
2023/05/17 08:11:33;;;;;;;7.78;1.58;;;;;;;;;;5031738;28;20572;-72
2023/05/17 08:14:00;;;;;;;12.45;1.50;;;;;;;;;;5028745;28;20572;-71
2023/05/17 08:16:25;;;;;;;7.82;1.20;;;;;;;;;;5033395;28;20231;-70
2023/05/17 08:18:51;;;;;;;9.13;1.25;;;;;;;;;;5029678;28;20194;-72
2023/05/17 08:21:16;;;;;;;10.48;1.20;;;;;;;;;;5007037;28;20182;-71
2023/05/17 08:23:42;;;;;;;4.60;0.95;;;;;;;;;;5038004;28;20220;-70
2023/05/17 08:26:08;;;;;;;10.02;1.48;;;;;;;;;;5037296;28;20190;-69
2023/05/17 08:28:33;;;;;;;7.53;1.35;;;;;;;;;;5042509;28;20186;-71
2023/05/17 08:30:59;;;;;;;7.30;1.20;;;;;;;;;;5036387;28;20578;-71
2023/05/17 08:33:24;;;;;;;10.80;1.02;;;;;;;;;;5044151;28;20196;-72
2023/05/17 08:35:51;;;;;;;10.85;1.70;;;;;;;;;;5033280;28;20178;-72
2023/05/17 08:38:17;;;;;;;8.57;1.50;;;;;;;;;;5008871;28;20302;-72
2023/05/17 08:40:42;;;;;;;8.38;1.77;;;;;;;;;;5027655;28;20653;-68
2023/05/17 08:43:11;;;;;;;9.95;1.65;;;;;;;;;;5015699;28;20191;-70
2023/05/17 08:45:37;;;;;;;6.88;1.38;;;;;;;;;;5027851;28;20193;-70
2023/05/17 08:48:04;;;;;;;13.13;1.65;;;;;;;;;;5028917;28;20194;-73
2023/05/17 08:50:32;;;;;;;9.00;1.27;;;;;;;;;;5040927;28;20563;-71
2023/05/17 08:52:58;;;;;;;10.68;1.20;;;;;;;;;;5021673;28;20265;-72
2023/05/17 08:55:26;;;;;;;13.57;1.52;;;;;;;;;;5023910;28;20273;-71
2023/05/17 08:57:53;;;;;;;7.65;1.40;;;;;;;;;;5024599;28;20198;-71
2023/05/17 09:00:20;;;;;;;10.35;1.42;;;;;;;;;;5028072;28;20232;-72
2023/05/17 09:02:46;;;;;;;10.10;1.48;;;;;;;;;;5026404;28;20274;-71
2023/05/17 09:05:12;;;;;;;12.70;1.60;;;;;;;;;;5048477;28;20536;-71
2023/05/17 09:07:38;;;;;;;8.15;1.38;;;;;;;;;;5027870;28;20202;-72
2023/05/17 09:10:04;;;;;;;10.43;1.65;;;;;;;;;;5033249;28;20211;-73
2023/05/17 09:12:33;;;;;;;12.35;2.00;;;;;;;;;;5018158;28;20186;-73
2023/05/17 09:15:21;;;;;;;7.90;1.73;;;;;;;;;;5027105;28;20189;-73
2023/05/17 09:17:53;;;;;;;8.55;1.38;;;;;;;;;;5028594;28;20662;-72
2023/05/17 09:20:35;;;;;;;8.23;1.70;;;;;;;;;;5021651;28;20195;-70
2023/05/17 09:23:01;;;;;;;8.38;1.38;;;;;;;;;;5017838;28;20193;-71
2023/05/17 09:25:29;;;;;;;15.77;2.25;;;;;;;;;;5021534;28;20198;-73
2023/05/17 09:27:58;;;;;;;11.68;1.73;;;;;;;;;;5023928;28;20218;-72
2023/05/17 09:30:32;;;;;;;7.03;2.00;;;;;;;;;;5043727;28;20209;-71
2023/05/17 09:33:03;;;;;;;11.57;1.75;;;;;;;;;;5034114;28;20690;-72
2023/05/17 09:35:30;;;;;;;10.13;1.77;;;;;;;;;;5012502;28;20224;-73
2023/05/17 09:38:02;;;;;;;17.58;2.00;;;;;;;;;;5032637;28;20229;-71
2023/05/17 09:40:28;;;;;;;7.45;2.00;;;;;;;;;;5028365;28;20209;-71
2023/05/17 09:42:54;;;;;;;10.40;1.85;;;;;;;;;;5020592;28;20191;-70
2023/05/17 09:45:23;;;;;;;12.07;1.85;;;;;;;;;;5041477;28;20641;-69
2023/05/17 09:47:49;;;;;;;11.00;1.90;;;;;;;;;;5033427;28;20182;-71
2023/05/17 09:50:18;;;;;;;11.52;1.88;;;;;;;;;;5027935;28;20287;-72
2023/05/17 09:52:44;;;;;;;14.63;2.00;;;;;;;;;;5032116;28;20630;-72
2023/05/17 09:55:14;;;;;;;9.98;1.92;;;;;;;;;;5031444;28;20186;-71
2023/05/17 09:57:40;;;;;;;17.10;1.90;;;;;;;;;;5030092;28;20197;-73
2023/05/17 10:00:10;;;;;;;11.13;2.13;;;;;;;;;;5037008;28;20200;-71
2023/05/17 10:02:36;;;;;;;11.32;2.20;;;;;;;;;;5036588;28;20222;-71
2023/05/17 10:05:06;;;;;;;13.60;2.10;;;;;;;;;;5027181;28;20190;-70
2023/05/17 10:07:33;;;;;;;9.18;1.63;;;;;;;;;;5022430;28;20191;-73
2023/05/17 10:09:59;;;;;;;10.27;1.92;;;;;;;;;;5033167;28;20207;-70
2023/05/17 10:12:28;;;;;;;11.70;2.20;;;;;;;;;;5039748;28;20204;-71
2023/05/17 10:14:55;;;;;;;9.70;2.00;;;;;;;;;;5028123;28;20182;-69
2023/05/17 10:17:21;;;;;;;11.57;1.85;;;;;;;;;;5030202;28;20193;-71
2023/05/17 10:19:46;;;;;;;9.82;2.22;;;;;;;;;;5017847;28;20202;-70
2023/05/17 10:22:13;;;;;;;15.73;2.20;;;;;;;;;;5024249;28;20194;-72
2023/05/17 10:24:39;;;;;;;8.98;2.03;;;;;;;;;;5020318;28;20727;-72
2023/05/17 10:27:08;;;;;;;11.80;1.90;;;;;;;;;;5016371;28;20217;-71
2023/05/17 10:29:35;;;;;;;8.40;1.75;;;;;;;;;;5019415;28;20202;-73
2023/05/17 10:32:04;;;;;;;11.25;2.10;;;;;;;;;;5031717;28;20469;-73
2023/05/17 10:34:30;;;;;;;10.25;2.10;;;;;;;;;;5048228;28;20189;-72
2023/05/17 10:36:56;;;;;;;10.13;1.60;;;;;;;;;;5042430;28;20591;-72
2023/05/17 10:39:23;;;;;;;13.18;1.63;;;;;;;;;;5025649;28;20379;-70
2023/05/17 10:41:51;;;;;;;11.40;1.92;;;;;;;;;;5028886;28;20186;-70
2023/05/17 10:44:17;;;;;;;14.65;2.53;;;;;;;;;;5040797;28;20830;-70
2023/05/17 10:46:56;;;;;;;8.70;2.03;;;;;;;;;;5029531;28;20273;-72
2023/05/17 10:49:30;;;;;;;15.32;1.98;;;;;;;;;;5011482;28;20270;-72
2023/05/17 10:52:14;;;;;;;13.35;1.98;;;;;;;;;;5015327;28;20368;-71
2023/05/17 10:54:42;;;;;;;9.60;2.08;;;;;;;;;;5020548;28;20190;-69
2023/05/17 10:57:08;;;;;;;9.88;1.85;;;;;;;;;;5027596;28;20671;-71
2023/05/17 10:59:34;;;;;;;9.80;1.80;;;;;;;;;;5027230;28;20551;-72
2023/05/17 11:02:02;;;;;;;9.65;1.67;;;;;;;;;;5033553;28;20202;-70
2023/05/17 11:04:32;;;;;;;11.55;1.73;;;;;;;;;;5027135;28;20197;-72
2023/05/17 11:07:16;;;;;;;7.85;1.70;;;;;;;;;;5025318;28;20194;-70
2023/05/17 11:09:48;;;;;;;7.32;2.67;;;;;;;;;;5033974;28;20784;-69
2023/05/17 11:12:14;;;;;;;8.52;2.20;;;;;;;;;;5032228;28;20251;-72
2023/05/17 11:14:53;;;;;;;13.70;2.22;;;;;;;;;;5024243;28;20650;-71
2023/05/17 11:17:20;;;;;;;10.73;2.50;;;;;;;;;;5030775;28;20293;-73
2023/05/17 11:20:09;;;;;;;8.43;2.13;;;;;;;;;;5030690;28;20186;-71
2023/05/17 11:22:43;;;;;;;9.70;2.35;;;;;;;;;;5029554;28;20191;-68
2023/05/17 11:25:11;;;;;;;11.77;1.83;;;;;;;;;;5026571;28;20185;-72
2023/05/17 11:27:42;;;;;;;9.82;2.28;;;;;;;;;;5029379;28;20786;-72
2023/05/17 11:30:27;;;;;;;12.48;2.10;;;;;;;;;;5029729;28;20263;-71
2023/05/17 11:33:03;;;;;;;8.80;2.13;;;;;;;;;;5029826;28;20201;-71
2023/05/17 11:35:38;;;;;;;13.43;1.88;;;;;;;;;;5034680;28;20204;-71
2023/05/17 11:38:17;;;;;;;12.52;2.15;;;;;;;;;;5036813;28;20419;-71
2023/05/17 11:40:44;;;;;;;8.20;1.65;;;;;;;;;;5024662;28;20196;-71
2023/05/17 11:43:17;;;;;;;10.55;1.98;;;;;;;;;;5029851;28;20205;-71
2023/05/17 11:45:49;;;;;;;9.85;1.80;;;;;;;;;;5017881;28;20190;-71
2023/05/17 11:48:15;;;;;;;12.40;2.15;;;;;;;;;;5028694;28;20221;-72
2023/05/17 11:50:42;;;;;;;9.52;2.10;;;;;;;;;;5027527;28;20217;-72
2023/05/17 11:53:08;;;;;;;10.70;2.28;;;;;;;;;;5021245;28;20579;-72
2023/05/17 11:55:43;;;;;;;8.90;2.60;;;;;;;;;;5029651;28;20246;-70
2023/05/17 11:58:10;;;;;;;11.38;2.35;;;;;;;;;;5032235;28;20185;-71
2023/05/17 12:00:39;;;;;;;9.00;2.13;;;;;;;;;;5027614;28;20201;-71
2023/05/17 12:03:34;;;;;;;9.70;2.28;;;;;;;;;;5037189;28;20228;-73
2023/05/17 12:06:15;;;;;;;15.18;2.20;;;;;;;;;;5023969;28;20206;-71
2023/05/17 12:08:45;;;;;;;8.65;2.50;;;;;;;;;;5031350;28;20208;-67
2023/05/17 12:11:13;;;;;;;8.07;1.92;;;;;;;;;;5035274;28;20214;-72
2023/05/17 12:13:41;;;;;;;12.60;2.15;;;;;;;;;;5028564;28;20198;-72
2023/05/17 12:16:10;;;;;;;9.93;1.95;;;;;;;;;;5040195;28;20181;-72
2023/05/17 12:18:36;;;;;;;10.95;2.20;;;;;;;;;;5031443;28;20237;-71
2023/05/17 12:21:02;;;;;;;12.88;2.38;;;;;;;;;;5029291;28;20243;-72
2023/05/17 12:23:33;;;;;;;14.25;2.25;;;;;;;;;;5034929;28;20189;-72
2023/05/17 12:26:14;;;;;;;11.30;2.08;;;;;;;;;;5049319;28;20177;-71
2023/05/17 12:28:42;;;;;;;9.20;1.83;;;;;;;;;;5029844;28;20182;-72
2023/05/17 12:31:15;;;;;;;9.05;2.22;;;;;;;;;;5034227;28;20668;-69
2023/05/17 12:33:42;;;;;;;8.88;2.00;;;;;;;;;;5031559;28;20237;-70
2023/05/17 12:36:10;;;;;;;16.38;2.50;;;;;;;;;;5040769;28;20611;-71
2023/05/17 12:38:38;;;;;;;14.70;2.85;;;;;;;;;;5031928;28;20720;-71
2023/05/17 12:41:05;;;;;;;12.63;2.58;;;;;;;;;;5030561;28;20223;-70
2023/05/17 12:43:35;;;;;;;13.45;1.80;;;;;;;;;;5016645;28;20190;-71
2023/05/17 12:46:05;;;;;;;14.43;2.60;;;;;;;;;;5039535;28;20186;-70
2023/05/17 12:48:32;;;;;;;10.00;1.83;;;;;;;;;;5027714;28;20206;-70
2023/05/17 12:51:05;;;;;;;11.55;2.67;;;;;;;;;;5035438;28;20280;-71
2023/05/17 12:53:36;;;;;;;7.10;2.00;;;;;;;;;;5030867;28;20224;-70
2023/05/17 12:56:01;;;;;;;13.77;2.20;;;;;;;;;;5022985;28;20254;-70
2023/05/17 12:58:27;;;;;;;10.02;2.63;;;;;;;;;;5021047;28;20659;-70
2023/05/17 13:01:02;;;;;;;12.07;2.10;;;;;;;;;;5016674;28;20216;-71
2023/05/17 13:03:28;;;;;;;10.63;2.38;;;;;;;;;;5015339;28;20201;-72
2023/05/17 13:05:58;;;;;;;8.48;2.17;;;;;;;;;;5026884;28;20213;-70
2023/05/17 13:08:23;;;;;;;11.02;2.25;;;;;;;;;;5024776;28;20277;-70
2023/05/17 13:10:49;;;;;;;7.18;2.13;;;;;;;;;;5033174;28;20682;-71
2023/05/17 13:13:19;;;;;;;10.90;2.00;;;;;;;;;;5027376;28;20197;-70
2023/05/17 13:15:48;;;;;;;10.35;2.10;;;;;;;;;;5025916;28;20550;-71
2023/05/17 13:18:14;;;;;;;9.30;2.22;;;;;;;;;;5019072;28;20626;-71
2023/05/17 13:20:43;;;;;;;12.65;1.98;;;;;;;;;;5021494;28;20630;-72
2023/05/17 13:23:09;;;;;;;7.03;1.95;;;;;;;;;;5017094;28;20235;-70
2023/05/17 13:25:35;;;;;;;9.20;2.10;;;;;;;;;;5024516;28;20178;-70
2023/05/17 13:28:01;;;;;;;11.13;2.30;;;;;;;;;;5025999;28;20281;-70
2023/05/17 13:30:27;;;;;;;8.93;2.05;;;;;;;;;;5019937;28;20212;-71
2023/05/17 13:32:53;;;;;;;7.88;1.88;;;;;;;;;;5028981;28;20587;-71
2023/05/17 13:35:18;;;;;;;7.97;1.73;;;;;;;;;;5037938;28;20650;-71
2023/05/17 13:37:44;;;;;;;11.00;1.63;;;;;;;;;;5027526;28;20311;-71
2023/05/17 13:40:10;;;;;;;10.05;1.90;;;;;;;;;;5020322;28;20607;-71
2023/05/17 13:42:35;;;;;;;11.27;1.80;;;;;;;;;;5031401;28;20196;-71
2023/05/17 13:45:01;;;;;;;7.93;1.70;;;;;;;;;;5017903;28;20237;-71
2023/05/17 13:47:28;;;;;;;14.55;2.13;;;;;;;;;;5026373;28;20189;-71
2023/05/17 13:49:54;;;;;;;13.18;2.47;;;;;;;;;;5020667;28;20179;-71
2023/05/17 13:52:19;;;;;;;15.82;2.15;;;;;;;;;;5019762;28;20594;-71
2023/05/17 13:54:45;;;;;;;3.70;1.48;;;;;;;;;;5028814;28;20237;-70
2023/05/17 13:57:11;;;;;;;7.32;1.60;;;;;;;;;;5018374;28;20296;-69
2023/05/17 13:59:38;;;;;;;6.90;1.70;;;;;;;;;;5023838;28;20240;-69
2023/05/17 14:02:03;;;;;;;6.78;1.80;;;;;;;;;;5018948;28;20214;-70
2023/05/17 14:04:28;;;;;;;9.50;1.95;;;;;;;;;;5027864;28;20685;-71
2023/05/17 14:06:54;;;;;;;8.63;1.92;;;;;;;;;;5009204;28;20183;-65
2023/05/17 14:09:20;;;;;;;11.70;2.03;;;;;;;;;;5033732;28;20202;-71
2023/05/17 14:11:45;;;;;;;3.70;1.33;;;;;;;;;;5022714;28;20232;-71
2023/05/17 14:14:11;;;;;;;7.93;2.00;;;;;;;;;;5025835;28;20662;-70
2023/05/17 14:16:36;;;;;;;7.53;2.00;;;;;;;;;;5025263;28;20201;-73
2023/05/17 14:19:02;;;;;;;9.05;2.08;;;;;;;;;;5028629;28;20217;-69
2023/05/17 14:21:27;;;;;;;7.05;1.92;;;;;;;;;;5024233;28;20174;-71
2023/05/17 14:23:52;;;;;;;8.68;1.50;;;;;;;;;;5030004;28;20621;-70
2023/05/17 14:26:19;;;;;;;13.23;1.90;;;;;;;;;;5018077;28;20210;-71
2023/05/17 14:28:44;;;;;;;5.22;1.60;;;;;;;;;;5038126;28;20187;-71
2023/05/17 14:31:09;;;;;;;6.40;1.77;;;;;;;;;;5030366;28;20283;-71
2023/05/17 14:33:35;;;;;;;9.18;2.05;;;;;;;;;;5023532;28;20688;-71